Time;durP1;ratioP1;P1;durP2;ratioP2;P2;SDS_P1;SDS_P2;PMS_P1;PMS_P2;Temp;Humidity;BMP_temperature;BMP_pressure;BME280_temperature;BME280_humidity;BME280_pressure;Samples;Min_cycle;Max_cycle;Signal;HPM_P1;HPM_P2
2023/12/03 00:02:05;;;;;;;17.42;6.03;;;;;;;-0.07;92.07;101234.88;5087253;28;20040;-61
2023/12/03 00:04:31;;;;;;;16.63;6.07;;;;;;;-0.12;92.04;101233.56;5087099;28;20394;-61
2023/12/03 00:06:56;;;;;;;17.77;6.23;;;;;;;-0.19;91.80;101236.34;5087225;28;20032;-61
2023/12/03 00:09:22;;;;;;;21.83;6.37;;;;;;;-0.22;92.50;101237.75;5086336;28;20098;-60
2023/12/03 00:11:47;;;;;;;19.77;6.97;;;;;;;-0.24;92.40;101236.69;5086356;28;20484;-60
2023/12/03 00:14:13;;;;;;;19.45;6.55;;;;;;;-0.30;92.29;101231.91;5086807;28;20492;-61
2023/12/03 00:16:41;;;;;;;19.50;6.63;;;;;;;-0.32;92.68;101237.69;5086542;28;20040;-61
2023/12/03 00:19:07;;;;;;;19.08;5.82;;;;;;;-0.35;92.74;101242.63;5085725;28;20032;-60
2023/12/03 00:21:32;;;;;;;21.20;7.33;;;;;;;-0.37;92.51;101249.34;5086855;28;20039;-61
2023/12/03 00:23:57;;;;;;;21.17;7.33;;;;;;;-0.40;92.73;101246.47;5086763;28;20553;-62
2023/12/03 00:26:23;;;;;;;20.03;6.23;;;;;;;-0.44;92.74;101256.56;5086676;28;20036;-62
2023/12/03 00:28:48;;;;;;;20.30;6.97;;;;;;;-0.50;92.85;101248.25;5086051;28;20048;-61
2023/12/03 00:31:14;;;;;;;19.17;6.30;;;;;;;-0.52;92.97;101259.22;5075892;28;20457;-62
2023/12/03 00:33:39;;;;;;;18.20;6.37;;;;;;;-0.56;93.18;101258.03;5073119;28;20037;-61
2023/12/03 00:36:05;;;;;;;16.43;5.83;;;;;;;-0.57;93.39;101266.59;5073099;28;20167;-61
2023/12/03 00:38:30;;;;;;;21.33;6.72;;;;;;;-0.58;92.91;101263.84;5072670;28;20476;-61
2023/12/03 00:40:55;;;;;;;19.60;6.97;;;;;;;-0.59;92.87;101272.38;5083304;28;20135;-62
2023/12/03 00:43:21;;;;;;;17.97;5.73;;;;;;;-0.60;92.94;101279.28;5074782;28;20536;-62
2023/12/03 00:45:46;;;;;;;21.48;5.53;;;;;;;-0.61;93.31;101274.88;5072781;28;20048;-61
2023/12/03 00:48:12;;;;;;;18.40;6.13;;;;;;;-0.64;93.22;101279.75;5072423;28;20496;-62
2023/12/03 00:50:37;;;;;;;19.53;5.70;;;;;;;-0.61;93.08;101280.06;5072408;28;20162;-62
2023/12/03 00:53:02;;;;;;;19.43;5.67;;;;;;;-0.56;92.86;101278.81;5073009;28;20151;-61
2023/12/03 00:55:28;;;;;;;14.03;4.90;;;;;;;-0.52;92.78;101290.34;5073037;28;20036;-62
2023/12/03 00:57:53;;;;;;;20.00;6.22;;;;;;;-0.48;92.48;101287.28;5072481;28;20119;-61
2023/12/03 01:00:19;;;;;;;15.50;5.37;;;;;;;-0.43;92.27;101293.81;5071972;28;20127;-61
2023/12/03 01:02:44;;;;;;;15.60;4.23;;;;;;;-0.40;92.21;101300.97;5072728;28;20033;-62
2023/12/03 01:05:09;;;;;;;15.50;4.23;;;;;;;-0.36;91.82;101298.81;5072613;28;20086;-62
2023/12/03 01:07:35;;;;;;;14.57;4.73;;;;;;;-0.35;91.54;101300.63;5072620;28;20115;-62
2023/12/03 01:10:00;;;;;;;18.50;5.80;;;;;;;-0.35;91.23;101305.81;5071674;28;20044;-60
2023/12/03 01:12:26;;;;;;;13.73;4.37;;;;;;;-0.34;90.97;101311.91;5072393;28;20048;-60
2023/12/03 01:14:51;;;;;;;15.97;4.97;;;;;;;-0.31;91.35;101307.94;5072368;28;20067;-62
2023/12/03 01:17:17;;;;;;;13.20;4.47;;;;;;;-0.28;91.03;101303.00;5072418;28;20045;-61
2023/12/03 01:22:06;;;;;;;15.57;4.10;;;;;;;-0.24;91.07;101314.56;5087930;28;20732;-62
2023/12/03 01:24:31;;;;;;;13.40;4.43;;;;;;;-0.21;90.76;101318.38;5088024;28;20036;-62
2023/12/03 01:26:57;;;;;;;11.32;4.20;;;;;;;-0.24;90.35;101315.50;5087823;28;20357;-61
2023/12/03 01:29:22;;;;;;;14.07;4.37;;;;;;;-0.20;89.98;101327.97;5087415;28;20032;-62
2023/12/03 01:31:47;;;;;;;12.80;4.37;;;;;;;-0.22;89.91;101318.25;5087876;28;20119;-61
2023/12/03 01:34:13;;;;;;;14.57;5.03;;;;;;;-0.24;89.97;101332.75;5087925;28;20039;-62
2023/12/03 01:36:38;;;;;;;12.93;4.57;;;;;;;-0.24;90.36;101335.34;5087816;28;20516;-62
2023/12/03 01:39:05;;;;;;;15.40;5.37;;;;;;;-0.26;90.42;101336.91;5086935;28;20327;-62
2023/12/03 01:41:30;;;;;;;15.35;4.80;;;;;;;-0.30;90.61;101332.19;5103098;28;20039;-62
2023/12/03 01:43:56;;;;;;;12.73;4.00;;;;;;;-0.34;90.28;101338.75;5108334;28;20487;-61
2023/12/03 01:46:22;;;;;;;11.73;4.23;;;;;;;-0.39;90.52;101342.63;5108418;28;20028;-62
2023/12/03 01:48:48;;;;;;;11.80;4.45;;;;;;;-0.42;90.38;101344.94;5107615;28;20040;-61
2023/12/03 01:51:14;;;;;;;12.95;4.53;;;;;;;-0.45;90.61;101340.41;5107497;28;20043;-62
2023/12/03 01:53:41;;;;;;;14.33;5.30;;;;;;;-0.47;90.40;101351.38;5107965;28;20040;-61
2023/12/03 01:56:08;;;;;;;14.15;4.40;;;;;;;-0.47;90.72;101346.19;5107617;28;20059;-62
2023/12/03 01:58:34;;;;;;;13.10;4.82;;;;;;;-0.45;90.81;101344.66;5107290;28;20538;-61
2023/12/03 02:00:59;;;;;;;13.03;4.07;;;;;;;-0.44;91.01;101356.84;5107171;28;20123;-61
2023/12/03 02:03:25;;;;;;;14.63;5.47;;;;;;;-0.42;90.57;101352.72;5107725;28;20519;-61
2023/12/03 02:06:02;;;;;;;14.57;5.30;;;;;;;-0.40;90.63;101350.28;5107692;28;20036;-63
2023/12/03 02:08:28;;;;;;;12.70;4.63;;;;;;;-0.40;90.95;101365.84;5107021;28;20300;-62
2023/12/03 02:10:53;;;;;;;12.93;4.80;;;;;;;-0.37;90.69;101361.84;5107208;28;20127;-63
2023/12/03 02:13:20;;;;;;;12.97;4.07;;;;;;;-0.35;90.48;101372.38;5107620;28;20285;-62
2023/12/03 02:15:45;;;;;;;16.20;4.40;;;;;;;-0.32;90.21;101362.28;5107133;28;20043;-61
2023/12/03 02:18:10;;;;;;;12.23;4.37;;;;;;;-0.31;90.55;101369.31;5107114;28;20188;-61
2023/12/03 02:20:36;;;;;;;16.37;4.60;;;;;;;-0.31;90.64;101365.03;5106675;28;20024;-61
2023/12/03 02:23:01;;;;;;;13.77;4.33;;;;;;;-0.33;90.52;101369.16;5106976;28;20119;-62
2023/12/03 02:25:27;;;;;;;12.00;3.60;;;;;;;-0.31;90.40;101380.59;5107002;28;20040;-62
2023/12/03 02:27:52;;;;;;;11.65;4.22;;;;;;;-0.28;90.53;101375.69;5107143;28;20039;-61
2023/12/03 02:30:17;;;;;;;13.23;4.20;;;;;;;-0.25;90.54;101380.25;5106414;28;20047;-62
2023/12/03 02:32:43;;;;;;;12.57;4.17;;;;;;;-0.24;90.47;101379.47;5097874;28;20111;-62
2023/12/03 02:35:08;;;;;;;12.83;4.37;;;;;;;-0.20;90.27;101376.41;5093618;28;20130;-62
2023/12/03 02:37:34;;;;;;;14.10;4.65;;;;;;;-0.18;90.54;101382.63;5093712;28;20043;-63
2023/12/03 02:39:59;;;;;;;12.83;4.40;;;;;;;-0.17;90.57;101380.19;5089877;28;20028;-61
2023/12/03 02:42:24;;;;;;;12.53;4.83;;;;;;;-0.16;90.45;101384.63;5073662;28;20135;-61
2023/12/03 02:44:50;;;;;;;14.27;4.93;;;;;;;-0.14;90.56;101384.75;5073054;28;20115;-61
2023/12/03 02:47:15;;;;;;;11.93;4.40;;;;;;;-0.10;90.21;101392.06;5072966;28;20044;-62
2023/12/03 02:49:40;;;;;;;13.20;4.57;;;;;;;-0.09;90.79;101391.28;5070938;28;20497;-61
2023/12/03 02:52:06;;;;;;;15.50;4.80;;;;;;;-0.07;90.90;101388.06;5072642;28;20416;-60
2023/12/03 02:54:31;;;;;;;14.23;4.97;;;;;;;-0.02;90.42;101389.41;5072712;28;20584;-62
2023/12/03 02:56:57;;;;;;;15.87;5.50;;;;;;;-0.01;90.34;101398.13;5072276;28;20044;-62
2023/12/03 02:59:22;;;;;;;16.83;5.67;;;;;;;0.02;90.52;101398.38;5072105;28;20463;-59
2023/12/03 03:01:47;;;;;;;12.50;4.00;;;;;;;0.02;90.42;101395.78;5072379;28;20041;-60
2023/12/03 03:04:13;;;;;;;12.77;4.43;;;;;;;0.00;90.22;101380.06;5072731;28;20715;-60
2023/12/03 03:06:38;;;;;;;15.57;5.17;;;;;;;-0.02;90.32;101385.91;5062867;28;20112;-59
2023/12/03 03:09:03;;;;;;;13.00;4.07;;;;;;;-0.04;90.47;101390.03;5051745;28;20480;-63
2023/12/03 03:11:29;;;;;;;14.77;4.53;;;;;;;-0.04;90.52;101390.03;5052189;28;20029;-60
2023/12/03 03:13:54;;;;;;;13.23;4.53;;;;;;;-0.04;90.65;101392.63;5052528;28;20518;-59
2023/12/03 03:16:24;;;;;;;12.80;4.50;;;;;;;-0.03;90.31;101389.25;5052507;28;20287;-60
2023/12/03 03:18:50;;;;;;;11.98;3.92;;;;;;;-0.05;90.39;101391.69;5051908;28;20087;-61
2023/12/03 03:21:15;;;;;;;11.93;4.60;;;;;;;-0.03;90.56;101384.06;5051440;28;20488;-60
2023/12/03 03:23:40;;;;;;;10.80;4.43;;;;;;;0.02;90.39;101395.78;5052328;28;20044;-59
2023/12/03 03:26:06;;;;;;;16.03;5.40;;;;;;;0.03;90.18;101400.22;5052152;28;20057;-59
2023/12/03 03:28:31;;;;;;;12.73;5.10;;;;;;;0.03;90.45;101395.03;5051677;28;20348;-59
2023/12/03 03:30:58;;;;;;;11.63;3.87;;;;;;;0.06;90.01;101405.69;5052193;28;20047;-59
2023/12/03 03:33:23;;;;;;;13.43;4.47;;;;;;;0.10;89.75;101407.78;5052225;28;20037;-59
2023/12/03 03:35:49;;;;;;;13.80;4.27;;;;;;;0.11;89.50;101408.69;5052208;28;20103;-59
2023/12/03 03:38:14;;;;;;;12.43;4.83;;;;;;;0.10;89.46;101407.78;5071756;28;20028;-59
2023/12/03 03:40:40;;;;;;;10.07;4.73;;;;;;;0.13;89.61;101408.09;5080500;28;20380;-59
2023/12/03 03:43:05;;;;;;;10.45;3.70;;;;;;;0.18;89.72;101411.09;5091366;28;20186;-58
2023/12/03 03:45:30;;;;;;;12.47;4.47;;;;;;;0.19;89.99;101411.25;5091540;28;20036;-60
2023/12/03 03:47:56;;;;;;;14.83;5.50;;;;;;;0.17;90.08;101412.78;5091606;28;20126;-59
2023/12/03 03:50:21;;;;;;;14.40;4.57;;;;;;;0.17;89.92;101418.00;5091700;28;20106;-59
2023/12/03 03:52:46;;;;;;;11.50;4.57;;;;;;;0.17;90.11;101417.06;5092165;28;20063;-61
2023/12/03 03:55:12;;;;;;;13.90;5.05;;;;;;;0.21;90.17;101420.09;5092359;28;20115;-60
2023/12/03 03:57:37;;;;;;;10.70;4.00;;;;;;;0.23;90.13;101415.03;5091968;28;20043;-59
2023/12/03 04:00:03;;;;;;;11.90;4.17;;;;;;;0.24;90.36;101419.47;5090983;28;20043;-63
2023/12/03 04:02:37;;;;;;;12.57;4.53;;;;;;;0.24;90.22;101423.00;5091906;28;20063;-62
2023/12/03 04:05:02;;;;;;;13.67;4.57;;;;;;;0.24;90.60;101417.78;5091745;28;20415;-59
2023/12/03 04:07:28;;;;;;;13.07;4.53;;;;;;;0.24;90.47;101410.00;5091877;28;20050;-59
2023/12/03 04:09:53;;;;;;;14.15;5.00;;;;;;;0.28;90.82;101408.59;5091337;28;20036;-59
2023/12/03 04:12:19;;;;;;;15.07;4.73;;;;;;;0.29;90.47;101416.53;5091728;28;20043;-60
2023/12/03 04:14:44;;;;;;;12.87;5.00;;;;;;;0.29;90.51;101419.13;5091527;28;20068;-60
2023/12/03 04:17:09;;;;;;;14.63;5.13;;;;;;;0.33;90.73;101416.03;5091347;28;20114;-59
2023/12/03 04:19:35;;;;;;;13.33;4.80;;;;;;;0.33;90.50;101418.63;5090670;28;20036;-60
2023/12/03 04:22:01;;;;;;;14.23;5.10;;;;;;;0.34;90.55;101419.53;5091067;28;20767;-60
2023/12/03 04:24:26;;;;;;;13.07;4.53;;;;;;;0.36;90.77;101426.69;5091091;28;20111;-59
2023/12/03 04:26:51;;;;;;;14.57;4.97;;;;;;;0.35;90.54;101434.34;5091039;28;20115;-59
2023/12/03 04:29:17;;;;;;;14.33;5.00;;;;;;;0.37;90.59;101427.59;5090216;28;20119;-60
2023/12/03 04:31:42;;;;;;;11.90;3.90;;;;;;;0.38;90.36;101430.34;5090640;28;20120;-59
2023/12/03 04:34:08;;;;;;;17.53;6.30;;;;;;;0.36;90.47;101429.28;5090902;28;20119;-60
2023/12/03 04:36:33;;;;;;;10.37;3.73;;;;;;;0.39;90.79;101424.41;5090954;28;20036;-60
2023/12/03 04:38:59;;;;;;;14.63;5.68;;;;;;;0.40;90.51;101422.69;5090827;28;20078;-60
2023/12/03 04:41:33;;;;;;;14.30;5.50;;;;;;;0.39;90.35;101433.88;5075514;28;20036;-59
2023/12/03 04:43:58;;;;;;;11.88;5.05;;;;;;;0.39;90.54;101429.59;5071018;28;20077;-60
2023/12/03 04:46:24;;;;;;;17.63;6.67;;;;;;;0.39;90.46;101434.78;5070749;28;20048;-59
2023/12/03 04:48:49;;;;;;;13.07;5.03;;;;;;;0.40;90.44;101433.06;5070317;28;20119;-60
2023/12/03 04:51:14;;;;;;;15.67;5.97;;;;;;;0.42;90.90;101432.47;5070073;28;20123;-60
2023/12/03 04:53:40;;;;;;;13.90;5.47;;;;;;;0.44;90.38;101433.50;5070629;28;20317;-60
2023/12/03 04:56:06;;;;;;;16.83;6.13;;;;;;;0.47;90.44;101432.88;5070239;28;20040;-59
2023/12/03 04:58:31;;;;;;;14.75;5.13;;;;;;;0.52;90.65;101441.09;5070261;28;20067;-61
2023/12/03 05:00:57;;;;;;;12.10;4.80;;;;;;;0.49;90.73;101440.81;5070180;28;20032;-60
2023/12/03 05:03:22;;;;;;;17.33;5.70;;;;;;;0.46;90.67;101438.84;5070568;28;20103;-60
2023/12/03 05:05:47;;;;;;;14.47;4.93;;;;;;;0.46;90.20;101445.72;5070138;28;20086;-60
2023/12/03 05:08:13;;;;;;;12.30;4.55;;;;;;;0.47;90.50;101447.56;5070303;28;20051;-60
2023/12/03 05:10:38;;;;;;;14.83;5.20;;;;;;;0.44;90.67;101446.47;5069542;28;20142;-60
2023/12/03 05:13:04;;;;;;;13.10;4.80;;;;;;;0.44;90.58;101448.19;5070416;28;20115;-59
2023/12/03 05:15:29;;;;;;;11.60;4.32;;;;;;;0.44;90.38;101453.41;5070170;28;20094;-59
2023/12/03 05:17:55;;;;;;;12.47;5.00;;;;;;;0.42;91.08;101453.25;5070262;28;20052;-60
2023/12/03 05:20:20;;;;;;;12.00;4.70;;;;;;;0.43;90.65;101465.47;5068391;28;20040;-60
2023/12/03 05:22:45;;;;;;;11.37;4.67;;;;;;;0.47;91.02;101463.16;5070267;28;20044;-59
2023/12/03 05:25:12;;;;;;;14.90;5.20;;;;;;;0.46;90.98;101458.72;5070188;28;20040;-59
2023/12/03 05:27:37;;;;;;;13.13;5.03;;;;;;;0.43;90.67;101461.97;5070423;28;20468;-61
2023/12/03 05:30:04;;;;;;;12.15;4.15;;;;;;;0.39;90.71;101454.66;5069599;28;20025;-59
2023/12/03 05:32:29;;;;;;;12.60;5.07;;;;;;;0.38;90.60;101458.94;5070123;28;20071;-61
2023/12/03 05:34:54;;;;;;;13.90;5.75;;;;;;;0.37;91.06;101466.59;5070943;28;20488;-59
2023/12/03 05:37:20;;;;;;;13.87;5.47;;;;;;;0.37;90.81;101477.91;5071022;28;20033;-61
2023/12/03 05:39:46;;;;;;;12.83;5.33;;;;;;;0.37;90.63;101482.19;5070724;28;20045;-60
2023/12/03 05:42:13;;;;;;;13.57;5.63;;;;;;;0.34;90.74;101475.03;5090634;28;20122;-60
2023/12/03 05:44:38;;;;;;;15.27;5.97;;;;;;;0.33;90.86;101487.88;5090767;28;20460;-60
2023/12/03 05:47:03;;;;;;;15.25;5.72;;;;;;;0.34;91.28;101479.31;5090432;28;20046;-60
2023/12/03 05:49:29;;;;;;;15.30;4.93;;;;;;;0.34;90.71;101489.69;5089365;28;20081;-59
2023/12/03 05:51:54;;;;;;;15.30;5.70;;;;;;;0.33;90.93;101493.97;5090407;28;20036;-60
2023/12/03 05:54:20;;;;;;;10.70;4.63;;;;;;;0.35;91.24;101492.41;5090407;28;20044;-62
2023/12/03 05:56:45;;;;;;;13.43;5.22;;;;;;;0.34;90.83;101493.22;5090249;28;20047;-59
2023/12/03 05:59:11;;;;;;;12.53;4.60;;;;;;;0.32;90.55;101499.03;5089501;28;20043;-61
2023/12/03 06:01:37;;;;;;;11.85;4.85;;;;;;;0.28;90.47;101497.84;5090227;28;20060;-61
2023/12/03 06:04:06;;;;;;;11.57;5.10;;;;;;;0.27;90.64;101501.19;5090049;28;20565;-62
2023/12/03 06:06:36;;;;;;;15.52;5.03;;;;;;;0.25;90.65;101507.00;5090181;28;20043;-61
2023/12/03 06:09:04;;;;;;;12.35;4.90;;;;;;;0.26;90.79;101506.25;5093711;28;20044;-61
2023/12/03 06:11:32;;;;;;;11.45;5.07;;;;;;;0.26;91.09;101507.16;5093358;28;20020;-62
2023/12/03 06:13:57;;;;;;;12.07;4.73;;;;;;;0.24;90.44;101506.13;5093226;28;20032;-62
2023/12/03 06:16:23;;;;;;;12.57;4.93;;;;;;;0.23;90.98;101512.09;5093943;28;20615;-62
2023/12/03 06:18:49;;;;;;;13.13;5.37;;;;;;;0.21;90.79;101516.19;5093243;28;20040;-62
2023/12/03 06:21:14;;;;;;;16.70;5.38;;;;;;;0.21;90.80;101515.28;5093216;28;20531;-62
2023/12/03 06:23:39;;;;;;;11.73;3.67;;;;;;;0.23;90.64;101512.09;5093606;28;20032;-61
2023/12/03 06:26:05;;;;;;;13.83;4.70;;;;;;;0.24;90.36;101510.41;5093858;28;20426;-61
2023/12/03 06:28:30;;;;;;;11.32;4.30;;;;;;;0.25;90.71;101512.19;5083710;28;20024;-61
2023/12/03 06:30:56;;;;;;;14.43;5.73;;;;;;;0.23;90.40;101513.75;5072615;28;20100;-61
2023/12/03 06:33:21;;;;;;;12.50;4.20;;;;;;;0.24;90.37;101516.50;5072772;28;20055;-61
2023/12/03 06:35:47;;;;;;;14.23;4.60;;;;;;;0.23;90.50;101522.47;5072574;28;20151;-62
2023/12/03 06:38:56;;;;;;;11.52;4.25;;;;;;;0.24;90.12;101528.59;4999952;28;20426;-60
2023/12/03 06:41:22;;;;;;;13.67;4.87;;;;;;;0.22;89.71;101523.22;4985433;28;20039;-60
2023/12/03 06:43:47;;;;;;;14.77;4.70;;;;;;;0.22;90.18;101527.50;4985296;28;20118;-62
2023/12/03 06:46:12;;;;;;;13.83;4.93;;;;;;;0.17;89.96;101532.28;4985327;28;20057;-62
2023/12/03 06:48:41;;;;;;;17.77;5.50;;;;;;;0.14;90.17;101539.78;4985035;28;20687;-61
2023/12/03 06:51:07;;;;;;;12.10;4.50;;;;;;;0.16;89.82;101548.63;4984818;28;20042;-62
2023/12/03 06:53:33;;;;;;;16.13;5.22;;;;;;;0.16;90.07;101547.72;4985266;28;20623;-64
2023/12/03 06:55:58;;;;;;;14.70;5.37;;;;;;;0.19;89.71;101553.22;4985028;28;20038;-61
2023/12/03 06:58:24;;;;;;;11.77;4.17;;;;;;;0.18;89.88;101553.97;4982777;28;20058;-61
2023/12/03 07:00:49;;;;;;;18.10;5.97;;;;;;;0.16;89.92;101559.03;4985047;28;20030;-61
2023/12/03 07:03:14;;;;;;;16.20;5.13;;;;;;;0.15;89.76;101559.78;4985499;28;20031;-61
2023/12/03 07:05:41;;;;;;;12.48;4.97;;;;;;;0.14;90.15;101560.56;4985422;28;20038;-60
2023/12/03 07:08:07;;;;;;;12.10;4.37;;;;;;;0.12;89.64;101561.19;4984607;28;20051;-61
2023/12/03 07:10:33;;;;;;;16.23;5.97;;;;;;;0.07;89.57;101562.44;4984481;28;20509;-61
2023/12/03 07:12:58;;;;;;;15.87;5.80;;;;;;;0.06;89.92;101569.31;4984711;28;20038;-59
2023/12/03 07:15:23;;;;;;;12.50;5.20;;;;;;;0.09;89.88;101574.81;4984804;28;20417;-60
2023/12/03 07:17:49;;;;;;;17.80;5.38;;;;;;;0.08;90.04;101570.38;4993014;28;20038;-61
2023/12/03 07:20:14;;;;;;;13.90;4.90;;;;;;;0.05;89.47;101575.25;5050946;28;20113;-62
2023/12/03 07:22:39;;;;;;;14.57;5.37;;;;;;;0.03;89.95;101584.59;5051826;28;20030;-60
2023/12/03 07:25:05;;;;;;;14.70;5.67;;;;;;;0.00;89.91;101581.72;5016300;28;20148;-61
2023/12/03 07:27:31;;;;;;;19.33;6.32;;;;;;;-0.04;89.74;101580.50;5038518;28;20039;-61
2023/12/03 07:29:57;;;;;;;15.37;5.37;;;;;;;-0.02;89.86;101588.44;5054151;28;20163;-60
2023/12/03 07:32:23;;;;;;;16.92;6.68;;;;;;;-0.03;90.10;101584.00;5044133;28;20049;-60
2023/12/03 07:34:49;;;;;;;15.40;6.03;;;;;;;-0.03;90.31;101587.53;5003992;28;20030;-61
2023/12/03 07:37:15;;;;;;;14.50;5.90;;;;;;;-0.02;90.18;101594.56;5038039;28;20038;-62
2023/12/03 07:39:40;;;;;;;17.08;6.53;;;;;;;0.00;90.26;101592.13;5085329;28;20032;-61
2023/12/03 07:42:06;;;;;;;14.47;5.80;;;;;;;0.06;90.20;101600.47;5003954;28;20062;-62
2023/12/03 07:44:32;;;;;;;14.13;6.33;;;;;;;0.03;89.83;101596.69;5004578;28;20091;-62
2023/12/03 07:46:57;;;;;;;13.82;5.50;;;;;;;0.03;90.07;101602.78;5080143;28;20041;-62
2023/12/03 07:49:23;;;;;;;17.80;6.67;;;;;;;0.03;89.65;101604.47;5075559;28;20043;-62
2023/12/03 07:51:48;;;;;;;14.57;5.60;;;;;;;-0.01;89.35;101601.59;5073289;28;20510;-61
2023/12/03 07:54:13;;;;;;;15.48;6.13;;;;;;;0.00;89.53;101610.28;5073651;28;20040;-61
2023/12/03 07:56:40;;;;;;;15.53;5.73;;;;;;;0.03;89.58;101612.25;5064212;28;20048;-61
2023/12/03 07:59:06;;;;;;;16.70;6.28;;;;;;;0.03;89.50;101607.97;4990758;28;20045;-61
2023/12/03 08:01:32;;;;;;;12.13;4.60;;;;;;;0.03;89.64;101615.78;4966311;28;20035;-61
2023/12/03 08:03:58;;;;;;;13.73;4.95;;;;;;;0.05;89.62;101616.81;4981686;28;20552;-60
2023/12/03 08:06:23;;;;;;;12.93;4.97;;;;;;;0.11;89.37;101616.50;4971550;28;20093;-61
2023/12/03 08:08:49;;;;;;;15.43;5.97;;;;;;;0.09;88.92;101611.16;4971080;28;20035;-61
2023/12/03 08:11:15;;;;;;;15.05;5.57;;;;;;;0.07;89.09;101611.78;5048427;28;20032;-61
2023/12/03 08:13:40;;;;;;;15.77;4.83;;;;;;;0.06;89.07;101622.94;5071845;28;20442;-61
2023/12/03 08:16:06;;;;;;;14.50;5.50;;;;;;;0.09;88.49;101616.38;5071219;28;20032;-61
2023/12/03 08:18:31;;;;;;;16.08;5.10;;;;;;;0.12;88.69;101620.91;4970792;28;20138;-61
2023/12/03 08:20:57;;;;;;;15.70;5.13;;;;;;;0.12;88.33;101627.03;4969130;28;20495;-60
2023/12/03 08:23:23;;;;;;;13.60;5.05;;;;;;;0.13;87.96;101623.69;4968086;28;20058;-61
2023/12/03 08:25:48;;;;;;;13.57;5.10;;;;;;;0.10;87.54;101620.75;4969525;28;20057;-61
2023/12/03 08:28:13;;;;;;;11.73;4.50;;;;;;;0.12;87.43;101627.03;4988711;28;20402;-60
2023/12/03 08:30:39;;;;;;;16.63;5.47;;;;;;;0.19;87.20;101625.94;4978089;28;20126;-61
2023/12/03 08:33:04;;;;;;;13.10;4.53;;;;;;;0.24;87.36;101629.91;4975004;28;20482;-61
2023/12/03 08:35:31;;;;;;;14.90;5.47;;;;;;;0.24;86.92;101625.63;5027806;28;20319;-61
2023/12/03 08:37:57;;;;;;;15.70;4.65;;;;;;;0.24;86.34;101632.50;4989916;28;20097;-61
2023/12/03 08:40:22;;;;;;;11.70;4.17;;;;;;;0.26;86.38;101630.94;5014716;28;20040;-61
2023/12/03 08:42:47;;;;;;;12.20;4.50;;;;;;;0.29;85.99;101628.66;5050263;28;20452;-60
2023/12/03 08:45:13;;;;;;;13.13;4.57;;;;;;;0.38;85.81;101635.63;4990558;28;20042;-59
2023/12/03 08:47:38;;;;;;;14.07;5.37;;;;;;;0.49;85.62;101640.94;4990619;28;20038;-60
2023/12/03 08:50:04;;;;;;;13.77;5.03;;;;;;;0.55;85.81;101638.91;4989927;28;20117;-61
2023/12/03 08:52:31;;;;;;;13.90;4.88;;;;;;;0.52;84.85;101643.81;5053387;28;20472;-61
2023/12/03 08:54:56;;;;;;;12.90;4.37;;;;;;;0.50;84.95;101640.16;5039221;28;20049;-63
2023/12/03 08:57:21;;;;;;;12.43;4.40;;;;;;;0.54;85.28;101647.50;4971342;28;20047;-62
2023/12/03 08:59:49;;;;;;;12.47;4.83;;;;;;;0.56;85.05;101643.34;4969170;28;20075;-63
2023/12/03 09:02:15;;;;;;;14.40;4.32;;;;;;;0.59;84.83;101651.44;4969673;28;20041;-63
2023/12/03 09:04:40;;;;;;;14.07;4.88;;;;;;;0.58;84.27;101655.72;4970822;28;20039;-63
2023/12/03 09:07:05;;;;;;;14.63;4.63;;;;;;;0.51;84.35;101663.69;4970360;28;20117;-60
2023/12/03 09:09:31;;;;;;;14.13;5.83;;;;;;;0.52;84.53;101667.22;4982013;28;20036;-62
2023/12/03 09:11:56;;;;;;;13.07;5.07;;;;;;;0.50;84.15;101667.06;4990194;28;20141;-62
2023/12/03 09:14:22;;;;;;;12.13;4.87;;;;;;;0.44;84.62;101666.50;4990074;28;20152;-61
2023/12/03 09:16:47;;;;;;;12.45;4.60;;;;;;;0.41;84.57;101667.09;4990319;28;20041;-62
2023/12/03 09:19:12;;;;;;;11.20;3.37;;;;;;;0.48;84.71;101678.09;4989687;28;20149;-61
2023/12/03 09:21:38;;;;;;;14.13;5.27;;;;;;;0.42;83.96;101684.53;4989752;28;20160;-61
2023/12/03 09:24:04;;;;;;;14.73;4.93;;;;;;;0.40;84.55;101680.84;4989714;28;20034;-61
2023/12/03 09:26:29;;;;;;;13.32;4.80;;;;;;;0.40;84.03;101680.84;4989895;28;20042;-62
2023/12/03 09:28:54;;;;;;;11.30;4.20;;;;;;;0.42;84.13;101681.00;4989732;28;20042;-60
2023/12/03 09:31:20;;;;;;;10.97;4.00;;;;;;;0.39;83.90;101676.47;4989728;28;20034;-60
2023/12/03 09:33:45;;;;;;;13.90;4.30;;;;;;;0.39;83.89;101679.06;4990143;28;20808;-60
2023/12/03 09:36:11;;;;;;;11.27;4.00;;;;;;;0.38;83.89;101674.63;4989927;28;20034;-60
2023/12/03 09:38:36;;;;;;;19.17;5.73;;;;;;;0.43;83.72;101680.25;4989573;28;20573;-60
2023/12/03 09:41:07;;;;;;;13.80;5.17;;;;;;;0.53;83.74;101682.03;5036687;28;20048;-60
2023/12/03 09:43:37;;;;;;;16.75;5.78;;;;;;;0.62;83.57;101683.81;5015207;28;20121;-61
2023/12/03 09:46:10;;;;;;;12.40;4.75;;;;;;;0.70;83.42;101682.84;4990497;28;20054;-61
2023/12/03 09:48:39;;;;;;;12.65;4.32;;;;;;;0.74;83.39;101686.69;4989677;28;20034;-61
2023/12/03 09:51:04;;;;;;;16.90;6.25;;;;;;;0.71;82.77;101692.50;4988995;28;20073;-60
2023/12/03 09:53:33;;;;;;;14.97;5.77;;;;;;;0.69;82.85;101695.72;4989960;28;20053;-61
2023/12/03 09:55:58;;;;;;;15.45;4.95;;;;;;;0.72;82.74;101690.81;4986856;28;20037;-61
2023/12/03 09:58:24;;;;;;;12.70;4.70;;;;;;;0.75;82.82;101689.41;4988498;28;20039;-59
2023/12/03 10:00:52;;;;;;;13.83;4.97;;;;;;;0.80;82.90;101692.44;4989271;28;20046;-61
2023/12/03 10:03:17;;;;;;;13.98;5.20;;;;;;;0.87;82.35;101692.25;4970651;28;20043;-61
2023/12/03 10:05:45;;;;;;;15.07;5.07;;;;;;;0.92;82.41;101683.19;4969902;28;20047;-59
2023/12/03 10:08:12;;;;;;;15.85;5.15;;;;;;;0.98;82.35;101690.66;4970074;28;20065;-60
2023/12/03 10:10:41;;;;;;;11.93;4.18;;;;;;;0.99;82.16;101693.38;4968470;28;20050;-61
2023/12/03 10:13:09;;;;;;;15.65;6.30;;;;;;;0.99;82.09;101689.91;4968651;28;20038;-62
2023/12/03 10:15:34;;;;;;;14.38;5.40;;;;;;;1.04;81.95;101684.31;4968706;28;20103;-61
2023/12/03 10:17:59;;;;;;;15.37;5.53;;;;;;;1.14;81.87;101689.63;5026020;28;20044;-62
2023/12/03 10:20:27;;;;;;;14.73;5.47;;;;;;;1.21;82.28;101689.44;4974953;28;20561;-61
2023/12/03 10:23:02;;;;;;;12.38;4.85;;;;;;;1.28;81.62;101684.00;4988383;28;20034;-61
2023/12/03 10:25:31;;;;;;;13.30;5.43;;;;;;;1.27;81.39;101689.09;5021649;28;20541;-62
2023/12/03 10:27:58;;;;;;;14.23;5.23;;;;;;;1.34;81.14;101685.34;5070988;28;20062;-62
2023/12/03 10:30:25;;;;;;;11.95;4.50;;;;;;;1.37;80.71;101694.38;5070271;28;20036;-61
2023/12/03 10:32:50;;;;;;;12.70;4.53;;;;;;;1.30;80.24;101687.66;5071425;28;20098;-68
2023/12/03 10:35:19;;;;;;;12.32;4.72;;;;;;;1.21;80.20;101684.22;5070938;28;20036;-62
2023/12/03 10:37:44;;;;;;;13.73;5.23;;;;;;;1.11;80.68;101681.53;5070593;28;20068;-62
2023/12/03 10:40:10;;;;;;;13.80;4.90;;;;;;;1.12;80.54;101687.66;5052902;28;20517;-63
2023/12/03 10:42:39;;;;;;;13.27;4.87;;;;;;;1.20;80.73;101687.59;5014050;28;20036;-62
2023/12/03 10:45:14;;;;;;;14.85;4.80;;;;;;;1.25;80.02;101693.22;5071207;28;20028;-60
2023/12/03 10:47:41;;;;;;;14.23;5.13;;;;;;;1.17;79.54;101695.13;5071044;28;20111;-62
2023/12/03 10:50:08;;;;;;;12.13;3.90;;;;;;;1.18;79.54;101696.03;5037124;28;20047;-62
2023/12/03 10:52:38;;;;;;;11.98;4.57;;;;;;;1.19;80.04;101701.38;4988444;28;20041;-62
2023/12/03 10:55:05;;;;;;;12.80;4.27;;;;;;;1.21;80.07;101699.84;4989046;28;20481;-61
2023/12/03 10:57:32;;;;;;;11.48;4.15;;;;;;;1.20;79.56;101697.09;4988750;28;20043;-62
2023/12/03 11:00:10;;;;;;;14.48;4.50;;;;;;;1.17;79.36;101705.53;4988175;28;20046;-61
2023/12/03 11:02:45;;;;;;;8.55;3.55;;;;;;;1.11;79.56;101707.56;4988678;28;20095;-60
2023/12/03 11:05:18;;;;;;;13.70;4.55;;;;;;;1.06;79.51;101705.28;4988378;28;20125;-61
2023/12/03 11:07:43;;;;;;;13.07;4.47;;;;;;;1.07;79.98;101708.06;4988808;28;20030;-60
2023/12/03 11:10:10;;;;;;;10.90;4.03;;;;;;;1.12;79.46;101712.00;4988568;28;20398;-63
2023/12/03 11:12:36;;;;;;;14.20;5.28;;;;;;;1.16;79.35;101713.19;4988944;28;20113;-61
2023/12/03 11:15:02;;;;;;;9.67;3.37;;;;;;;1.09;79.60;101713.38;4988845;28;20522;-60
2023/12/03 11:17:33;;;;;;;14.95;5.63;;;;;;;0.97;79.63;101720.97;4981551;28;20125;-60
2023/12/03 11:20:06;;;;;;;14.20;4.83;;;;;;;0.93;79.87;101718.84;4967902;28;20096;-60